Time;durP1;ratioP1;P1;durP2;ratioP2;P2;SDS_P1;SDS_P2;PMS_P1;PMS_P2;Temp;Humidity;BMP_temperature;BMP_pressure;BME280_temperature;BME280_humidity;BME280_pressure;Samples;Min_cycle;Max_cycle;Signal;HPM_P1;HPM_P2
2022/01/20 00:03:38;;;;;;;68.30;32.30;;;;;;;;;;4966292;28;20026;-63
2022/01/20 00:28:03;;;;;;;64.25;30.20;;;;;;;;;;4975153;28;20093;-62
2022/01/20 00:33:15;;;;;;;56.55;29.20;;;;;;;;;;4974829;28;20035;-61
2022/01/20 00:38:20;;;;;;;59.30;30.70;;;;;;;;;;4974517;28;20046;-62
2022/01/20 00:40:47;;;;;;;59.10;29.88;;;;;;;;;;4974300;28;20118;-62
2022/01/20 00:43:13;;;;;;;65.70;31.88;;;;;;;;;;4974163;28;20026;-62
2022/01/20 00:45:40;;;;;;;72.13;32.70;;;;;;;;;;4974155;28;20035;-63
2022/01/20 00:48:06;;;;;;;72.07;32.60;;;;;;;;;;4974445;28;20486;-63
2022/01/20 00:50:34;;;;;;;74.75;33.35;;;;;;;;;;4974297;28;20039;-63
2022/01/20 00:53:00;;;;;;;72.57;33.95;;;;;;;;;;4974024;28;20027;-60
2022/01/20 00:55:26;;;;;;;67.55;33.67;;;;;;;;;;4974289;28;20475;-64
2022/01/20 00:57:53;;;;;;;73.30;34.88;;;;;;;;;;4974210;28;20081;-61
2022/01/20 01:00:19;;;;;;;75.40;35.05;;;;;;;;;;4973209;28;20038;-59
2022/01/20 01:02:45;;;;;;;74.90;34.40;;;;;;;;;;4973986;28;20027;-59
2022/01/20 01:05:12;;;;;;;69.10;33.90;;;;;;;;;;4974210;28;20513;-62
2022/01/20 01:10:05;;;;;;;80.97;36.20;;;;;;;;;;4974106;28;20499;-61
2022/01/20 01:15:17;;;;;;;74.78;33.75;;;;;;;;;;4973585;28;20062;-59
2022/01/20 01:20:31;;;;;;;78.32;33.47;;;;;;;;;;4974374;28;20103;-60
2022/01/20 01:22:57;;;;;;;100.60;43.15;;;;;;;;;;4974076;28;20101;-60
2022/01/20 01:25:23;;;;;;;93.50;39.28;;;;;;;;;;4973531;28;20330;-60
2022/01/20 01:27:49;;;;;;;82.05;35.15;;;;;;;;;;4973571;28;20066;-59
2022/01/20 01:30:30;;;;;;;74.95;33.85;;;;;;;;;;4973611;28;20038;-63
2022/01/20 01:32:57;;;;;;;74.15;34.70;;;;;;;;;;4973440;28;20566;-63
2022/01/20 01:35:26;;;;;;;69.88;33.75;;;;;;;;;;4973664;28;20030;-60
2022/01/20 01:40:22;;;;;;;75.03;34.40;;;;;;;;;;4973730;28;20031;-61
2022/01/20 01:42:51;;;;;;;81.43;36.60;;;;;;;;;;4973278;28;20646;-63
2022/01/20 01:45:18;;;;;;;97.68;42.13;;;;;;;;;;4973585;28;20023;-63
2022/01/20 01:47:45;;;;;;;94.55;41.28;;;;;;;;;;4973370;28;20411;-63
2022/01/20 01:50:11;;;;;;;82.97;37.67;;;;;;;;;;4973390;28;20093;-59
2022/01/20 01:52:37;;;;;;;84.05;37.40;;;;;;;;;;4973467;28;20459;-59
2022/01/20 01:55:04;;;;;;;84.43;37.05;;;;;;;;;;4973404;28;20435;-59
2022/01/20 01:57:30;;;;;;;80.40;30.55;;;;;;;;;;4973208;28;20084;-63
2022/01/20 01:59:57;;;;;;;75.93;31.02;;;;;;;;;;4973414;28;20031;-64
2022/01/20 02:02:23;;;;;;;81.47;35.17;;;;;;;;;;4973326;28;20034;-63
2022/01/20 02:04:50;;;;;;;87.68;36.25;;;;;;;;;;4972992;28;20031;-59
2022/01/20 02:18:36;;;;;;;73.82;30.48;;;;;;;;;;4972935;28;20123;-60
2022/01/20 02:21:02;;;;;;;66.88;29.45;;;;;;;;;;4972693;28;20463;-60
2022/01/20 02:23:28;;;;;;;75.20;31.85;;;;;;;;;;4972904;28;20066;-60
2022/01/20 02:25:54;;;;;;;76.50;31.10;;;;;;;;;;4972691;28;20061;-63
2022/01/20 02:28:20;;;;;;;66.20;29.88;;;;;;;;;;4972540;28;20070;-63
2022/01/20 02:30:46;;;;;;;71.20;31.27;;;;;;;;;;4972485;28;20023;-63
2022/01/20 02:33:17;;;;;;;69.85;31.40;;;;;;;;;;4972513;28;20062;-63
2022/01/20 02:35:45;;;;;;;71.22;33.08;;;;;;;;;;4972770;28;20035;-66
2022/01/20 02:46:37;;;;;;;61.78;26.63;;;;;;;;;;4912822;29;20187;-62
2022/01/20 02:49:04;;;;;;;56.88;25.83;;;;;;;;;;4912678;29;20036;-60
2022/01/20 02:51:30;;;;;;;55.92;23.52;;;;;;;;;;4912771;29;20134;-59
2022/01/20 02:53:57;;;;;;;54.03;23.52;;;;;;;;;;4912709;29;20028;-62
2022/01/20 02:56:23;;;;;;;47.85;22.27;;;;;;;;;;4912944;29;20036;-60
2022/01/20 02:58:49;;;;;;;50.08;23.52;;;;;;;;;;4912463;29;20040;-59
2022/01/20 03:01:15;;;;;;;46.40;21.48;;;;;;;;;;4913501;29;20028;-59
2022/01/20 03:03:41;;;;;;;42.97;20.25;;;;;;;;;;4913682;29;20036;-59
2022/01/20 03:06:07;;;;;;;39.60;18.80;;;;;;;;;;4912635;29;20169;-62
2022/01/20 03:08:34;;;;;;;44.13;18.55;;;;;;;;;;4912477;29;20066;-60
2022/01/20 03:11:00;;;;;;;39.28;18.42;;;;;;;;;;4912630;29;20040;-59
2022/01/20 03:13:26;;;;;;;44.10;19.77;;;;;;;;;;4912640;29;20056;-59
2022/01/20 03:15:52;;;;;;;43.92;20.25;;;;;;;;;;4912294;29;20036;-58
2022/01/20 03:18:19;;;;;;;44.55;19.95;;;;;;;;;;4961973;28;20043;-59
2022/01/20 03:20:45;;;;;;;49.85;18.55;;;;;;;;;;4972235;28;20034;-59
2022/01/20 03:23:11;;;;;;;48.85;20.35;;;;;;;;;;4971660;28;20030;-59
2022/01/20 03:25:37;;;;;;;45.30;19.65;;;;;;;;;;4975592;28;20027;-60
2022/01/20 03:28:04;;;;;;;44.83;19.67;;;;;;;;;;4975861;28;20034;-59
2022/01/20 03:30:30;;;;;;;40.17;19.73;;;;;;;;;;4975864;28;20380;-60
2022/01/20 03:32:56;;;;;;;46.60;20.33;;;;;;;;;;4975829;28;20049;-61
2022/01/20 03:35:22;;;;;;;46.28;20.77;;;;;;;;;;4975921;28;20027;-63
2022/01/20 03:37:49;;;;;;;47.58;20.13;;;;;;;;;;4975419;28;20122;-60
2022/01/20 03:40:16;;;;;;;41.00;18.65;;;;;;;;;;4975713;28;20034;-60
2022/01/20 03:42:42;;;;;;;50.35;19.38;;;;;;;;;;4975567;28;20023;-59
2022/01/20 03:45:08;;;;;;;45.25;19.48;;;;;;;;;;4975496;28;20479;-62
2022/01/20 03:47:34;;;;;;;39.10;17.58;;;;;;;;;;4975499;28;20581;-61
2022/01/20 03:52:27;;;;;;;31.80;14.85;;;;;;;;;;4975669;28;20043;-62
2022/01/20 03:54:53;;;;;;;31.92;14.05;;;;;;;;;;4975558;28;20458;-59
2022/01/20 03:57:19;;;;;;;35.33;13.60;;;;;;;;;;4975159;28;20027;-59
2022/01/20 03:59:46;;;;;;;28.58;13.35;;;;;;;;;;4975402;28;20027;-62
2022/01/20 04:02:12;;;;;;;33.15;12.55;;;;;;;;;;4975280;28;20042;-59
2022/01/20 04:04:38;;;;;;;28.40;13.13;;;;;;;;;;4975701;28;20109;-59
2022/01/20 04:07:05;;;;;;;33.75;13.35;;;;;;;;;;4975412;28;20038;-61
2022/01/20 04:09:31;;;;;;;28.35;13.02;;;;;;;;;;4975236;28;20434;-61
2022/01/20 04:11:57;;;;;;;30.05;13.52;;;;;;;;;;4975079;28;20030;-58
2022/01/20 04:14:25;;;;;;;29.92;13.57;;;;;;;;;;4975235;28;20045;-65
2022/01/20 04:17:05;;;;;;;23.90;12.27;;;;;;;;;;4975514;28;20034;-59
2022/01/20 04:19:32;;;;;;;32.00;13.77;;;;;;;;;;4975075;28;20052;-60
2022/01/20 04:21:59;;;;;;;28.95;12.35;;;;;;;;;;4975190;28;20027;-59
2022/01/20 04:24:25;;;;;;;28.83;13.25;;;;;;;;;;4975217;28;20023;-59
2022/01/20 04:26:51;;;;;;;26.48;12.10;;;;;;;;;;4975097;28;20129;-59
2022/01/20 04:29:17;;;;;;;31.85;13.27;;;;;;;;;;4974707;28;20019;-59
2022/01/20 04:31:44;;;;;;;28.52;13.20;;;;;;;;;;4974744;28;20041;-63
2022/01/20 04:34:11;;;;;;;29.52;12.85;;;;;;;;;;4974803;28;20026;-62
2022/01/20 04:36:40;;;;;;;26.98;13.05;;;;;;;;;;4974480;28;20054;-63
2022/01/20 04:39:09;;;;;;;32.97;14.07;;;;;;;;;;4974728;28;20035;-60
2022/01/20 04:41:35;;;;;;;30.00;12.98;;;;;;;;;;4974643;28;20030;-62
2022/01/20 04:44:03;;;;;;;28.80;13.80;;;;;;;;;;4974620;28;20034;-59
2022/01/20 04:46:57;;;;;;;26.92;12.88;;;;;;;;;;4974780;28;20042;-59
2022/01/20 04:57:37;;;;;;;28.33;12.18;;;;;;;;;;4974359;28;20147;-63
2022/01/20 05:00:04;;;;;;;29.30;12.68;;;;;;;;;;4974396;28;20027;-60
2022/01/20 05:02:30;;;;;;;31.15;13.20;;;;;;;;;;4974208;28;20026;-62
2022/01/20 05:04:56;;;;;;;27.15;12.27;;;;;;;;;;4974018;28;20113;-59
2022/01/20 05:07:26;;;;;;;32.35;13.68;;;;;;;;;;4973590;28;20065;-59
2022/01/20 05:09:54;;;;;;;28.77;14.57;;;;;;;;;;4956632;28;20403;-59
2022/01/20 05:12:26;;;;;;;31.63;16.92;;;;;;;;;;4974222;28;20400;-61
2022/01/20 05:14:54;;;;;;;30.60;14.35;;;;;;;;;;4974069;28;20023;-63
2022/01/20 05:17:20;;;;;;;30.50;14.68;;;;;;;;;;4974172;28;20118;-61
2022/01/20 05:19:46;;;;;;;28.90;13.63;;;;;;;;;;4973730;28;20061;-59
2022/01/20 05:22:12;;;;;;;36.15;15.18;;;;;;;;;;4974182;28;20414;-59
2022/01/20 05:24:38;;;;;;;34.20;15.80;;;;;;;;;;4973975;28;20522;-59
2022/01/20 05:27:05;;;;;;;37.95;17.20;;;;;;;;;;4973903;28;20055;-59
2022/01/20 05:29:31;;;;;;;35.53;16.20;;;;;;;;;;4974079;28;20038;-59
2022/01/20 05:31:57;;;;;;;34.95;16.75;;;;;;;;;;4973712;28;20364;-59
2022/01/20 05:34:23;;;;;;;38.05;16.92;;;;;;;;;;4973785;28;20395;-59
2022/01/20 05:36:49;;;;;;;40.20;19.02;;;;;;;;;;4973607;28;20387;-60
2022/01/20 05:39:15;;;;;;;38.42;18.08;;;;;;;;;;4973763;28;20030;-60
2022/01/20 05:41:41;;;;;;;41.05;18.83;;;;;;;;;;4973644;28;20030;-62
2022/01/20 05:44:07;;;;;;;41.88;18.90;;;;;;;;;;4973645;28;20031;-59
2022/01/20 05:46:38;;;;;;;38.83;18.67;;;;;;;;;;4972705;28;20097;-60
2022/01/20 05:49:10;;;;;;;43.80;20.33;;;;;;;;;;4973155;28;20038;-59
2022/01/20 05:51:39;;;;;;;51.03;24.15;;;;;;;;;;4973464;28;20595;-59
2022/01/20 05:54:06;;;;;;;50.55;24.23;;;;;;;;;;4973352;28;20037;-62
2022/01/20 05:56:32;;;;;;;48.28;24.40;;;;;;;;;;4973452;28;20027;-59
2022/01/20 05:58:59;;;;;;;57.90;24.58;;;;;;;;;;4973141;28;20035;-59
2022/01/20 06:01:26;;;;;;;47.38;24.48;;;;;;;;;;4973424;28;20086;-59
2022/01/20 06:03:52;;;;;;;61.38;27.70;;;;;;;;;;4972796;28;20023;-59
2022/01/20 06:06:18;;;;;;;58.53;30.55;;;;;;;;;;4973313;28;20081;-62
2022/01/20 06:08:44;;;;;;;80.63;42.55;;;;;;;;;;4972967;28;20059;-59
2022/01/20 06:11:11;;;;;;;64.20;33.85;;;;;;;;;;4973085;28;20038;-59
2022/01/20 06:13:37;;;;;;;64.32;32.40;;;;;;;;;;4972975;28;20088;-59
2022/01/20 06:16:04;;;;;;;50.95;23.95;;;;;;;;;;4972758;28;20034;-59
2022/01/20 06:18:30;;;;;;;48.38;23.55;;;;;;;;;;4972641;28;20553;-59
2022/01/20 06:20:56;;;;;;;45.45;22.33;;;;;;;;;;4972848;28;20037;-59
2022/01/20 06:23:22;;;;;;;42.60;21.15;;;;;;;;;;4972610;28;20062;-60
2022/01/20 06:25:49;;;;;;;46.20;22.67;;;;;;;;;;4972872;28;20489;-60
2022/01/20 06:28:15;;;;;;;50.90;23.10;;;;;;;;;;4972678;28;20059;-62
2022/01/20 06:30:41;;;;;;;59.92;25.13;;;;;;;;;;4969193;28;20106;-61
2022/01/20 06:33:08;;;;;;;70.45;31.10;;;;;;;;;;4953225;29;20035;-61
2022/01/20 06:35:34;;;;;;;59.20;26.70;;;;;;;;;;4953113;29;20038;-59
2022/01/20 06:38:00;;;;;;;69.60;29.83;;;;;;;;;;4953104;29;20118;-62
2022/01/20 06:40:27;;;;;;;66.40;27.88;;;;;;;;;;4953345;29;20055;-61
2022/01/20 06:42:53;;;;;;;62.58;27.23;;;;;;;;;;4953088;29;20027;-60
2022/01/20 06:45:20;;;;;;;57.50;25.70;;;;;;;;;;4952939;29;20113;-59
2022/01/20 06:47:46;;;;;;;52.88;23.00;;;;;;;;;;4952911;29;20027;-62
2022/01/20 06:50:13;;;;;;;55.15;24.20;;;;;;;;;;4952954;29;20050;-63
2022/01/20 06:52:40;;;;;;;46.17;19.58;;;;;;;;;;4953110;29;20074;-63
2022/01/20 06:55:07;;;;;;;47.47;20.63;;;;;;;;;;4957759;28;20031;-61
2022/01/20 06:57:37;;;;;;;48.20;20.63;;;;;;;;;;4991681;28;20038;-62
2022/01/20 07:00:10;;;;;;;42.92;19.35;;;;;;;;;;4991793;28;20085;-63
2022/01/20 07:02:36;;;;;;;42.63;18.88;;;;;;;;;;4955996;28;20388;-59
2022/01/20 07:05:03;;;;;;;40.58;17.33;;;;;;;;;;4953284;29;20123;-61
2022/01/20 07:07:30;;;;;;;37.22;17.95;;;;;;;;;;4952588;28;20042;-59
2022/01/20 07:09:57;;;;;;;36.70;16.80;;;;;;;;;;4953168;29;20033;-60
2022/01/20 07:12:23;;;;;;;44.92;18.88;;;;;;;;;;4953027;29;20511;-62
2022/01/20 07:14:49;;;;;;;41.28;19.90;;;;;;;;;;4954654;28;20119;-59
2022/01/20 07:17:15;;;;;;;47.42;21.83;;;;;;;;;;4963663;28;20023;-59
2022/01/20 07:19:41;;;;;;;38.15;18.15;;;;;;;;;;4955489;28;20026;-59
2022/01/20 07:22:07;;;;;;;40.47;18.80;;;;;;;;;;4956034;28;20014;-59
2022/01/20 07:24:33;;;;;;;39.38;19.25;;;;;;;;;;4956270;28;20357;-59
2022/01/20 07:26:59;;;;;;;46.00;20.60;;;;;;;;;;4958674;28;20038;-62
2022/01/20 07:29:26;;;;;;;47.78;20.77;;;;;;;;;;4970031;28;20105;-60
2022/01/20 07:31:53;;;;;;;54.05;21.00;;;;;;;;;;4965604;28;20039;-62
2022/01/20 07:34:20;;;;;;;41.78;19.13;;;;;;;;;;4962027;28;20023;-59
2022/01/20 07:36:46;;;;;;;45.70;18.70;;;;;;;;;;4963941;28;20467;-60
2022/01/20 07:39:12;;;;;;;38.50;16.77;;;;;;;;;;4963057;28;20031;-63
2022/01/20 07:41:38;;;;;;;53.25;21.40;;;;;;;;;;4961209;28;20094;-63
2022/01/20 07:44:04;;;;;;;48.65;20.08;;;;;;;;;;4960585;28;20102;-58
2022/01/20 07:46:30;;;;;;;41.60;19.05;;;;;;;;;;4961158;28;20383;-59
2022/01/20 07:48:56;;;;;;;50.40;20.80;;;;;;;;;;4959859;28;20519;-63
2022/01/20 07:51:22;;;;;;;83.47;37.85;;;;;;;;;;4961791;28;20062;-59
2022/01/20 07:53:48;;;;;;;49.28;23.27;;;;;;;;;;4960704;28;20068;-61
2022/01/20 07:56:14;;;;;;;53.35;21.23;;;;;;;;;;4958938;28;20041;-61
2022/01/20 07:58:41;;;;;;;57.55;22.30;;;;;;;;;;4960942;28;20027;-60
2022/01/20 08:01:07;;;;;;;52.65;24.15;;;;;;;;;;4960101;28;20034;-64
2022/01/20 08:03:34;;;;;;;44.47;19.48;;;;;;;;;;4959103;28;20019;-62
2022/01/20 08:06:00;;;;;;;41.47;18.17;;;;;;;;;;4959731;28;20019;-60
2022/01/20 08:08:26;;;;;;;44.90;20.48;;;;;;;;;;4958572;28;20138;-60
2022/01/20 08:10:52;;;;;;;55.08;25.70;;;;;;;;;;4965009;28;20557;-60
2022/01/20 08:13:18;;;;;;;44.13;21.88;;;;;;;;;;4959010;28;20479;-61
2022/01/20 08:15:44;;;;;;;45.67;21.90;;;;;;;;;;4967232;28;20059;-62
2022/01/20 08:18:10;;;;;;;57.22;25.50;;;;;;;;;;4964232;28;20031;-59
2022/01/20 08:20:36;;;;;;;66.60;24.33;;;;;;;;;;4963354;28;20046;-62
2022/01/20 08:23:03;;;;;;;50.95;23.73;;;;;;;;;;4970390;28;20037;-59
2022/01/20 08:25:29;;;;;;;66.50;28.40;;;;;;;;;;4963164;28;20113;-64
2022/01/20 08:27:55;;;;;;;48.97;24.73;;;;;;;;;;4962785;28;20033;-62
2022/01/20 08:30:22;;;;;;;51.38;22.25;;;;;;;;;;4965167;28;20061;-61
2022/01/20 08:32:49;;;;;;;52.03;22.08;;;;;;;;;;4946212;28;20044;-62
2022/01/20 08:35:15;;;;;;;44.90;20.77;;;;;;;;;;4963386;28;20023;-61
2022/01/20 08:37:44;;;;;;;55.85;22.90;;;;;;;;;;4964826;28;20079;-61
2022/01/20 08:40:14;;;;;;;50.08;21.17;;;;;;;;;;4962981;28;20021;-61
2022/01/20 08:42:41;;;;;;;43.53;19.85;;;;;;;;;;4962766;28;20074;-63
2022/01/20 08:45:08;;;;;;;41.58;18.45;;;;;;;;;;4962814;28;20101;-62
2022/01/20 08:47:35;;;;;;;51.45;25.05;;;;;;;;;;4962663;28;20126;-63
2022/01/20 08:50:01;;;;;;;62.28;27.58;;;;;;;;;;4963499;28;20031;-62
2022/01/20 08:52:28;;;;;;;53.95;26.13;;;;;;;;;;4964275;28;20035;-63
2022/01/20 08:54:57;;;;;;;56.13;27.65;;;;;;;;;;4962589;28;20022;-62
2022/01/20 08:57:24;;;;;;;56.30;27.92;;;;;;;;;;4963087;28;20086;-63
2022/01/20 08:59:50;;;;;;;52.30;24.20;;;;;;;;;;4960157;28;20035;-62
2022/01/20 09:02:16;;;;;;;59.15;26.17;;;;;;;;;;4959549;28;20069;-62
2022/01/20 09:04:42;;;;;;;50.00;23.20;;;;;;;;;;4964953;28;20037;-59
2022/01/20 09:07:08;;;;;;;57.80;23.67;;;;;;;;;;4967196;28;20034;-59
2022/01/20 09:09:40;;;;;;;74.32;31.35;;;;;;;;;;4961958;28;20051;-59
2022/01/20 09:17:27;;;;;;;46.35;18.02;;;;;;;;;;4958031;28;20039;-59
2022/01/20 09:19:54;;;;;;;47.90;18.48;;;;;;;;;;4955758;28;20289;-59
2022/01/20 09:22:20;;;;;;;45.85;19.95;;;;;;;;;;4963903;28;20027;-60
2022/01/20 09:24:47;;;;;;;47.10;19.20;;;;;;;;;;4964892;28;20106;-61
2022/01/20 09:27:13;;;;;;;42.08;17.60;;;;;;;;;;4961413;28;20023;-60
2022/01/20 09:29:40;;;;;;;43.40;18.15;;;;;;;;;;4956602;28;20063;-61
2022/01/20 09:32:09;;;;;;;35.42;14.27;;;;;;;;;;4966485;28;20074;-60
2022/01/20 09:34:35;;;;;;;30.08;12.30;;;;;;;;;;4971928;28;20068;-60
2022/01/20 09:37:01;;;;;;;27.40;11.35;;;;;;;;;;4963756;28;20035;-61
2022/01/20 09:39:27;;;;;;;27.75;10.00;;;;;;;;;;4962626;28;20459;-59
2022/01/20 09:41:53;;;;;;;28.52;11.30;;;;;;;;;;4956027;28;20036;-60
2022/01/20 09:44:20;;;;;;;26.40;11.45;;;;;;;;;;4953829;29;20110;-62
2022/01/20 09:46:46;;;;;;;26.30;10.18;;;;;;;;;;4953851;29;20076;-63
2022/01/20 09:49:13;;;;;;;19.10;8.25;;;;;;;;;;4953896;29;20019;-62
2022/01/20 09:51:39;;;;;;;21.40;8.73;;;;;;;;;;4953959;29;20515;-60
2022/01/20 09:54:06;;;;;;;22.17;9.18;;;;;;;;;;4954151;29;20446;-60
2022/01/20 09:56:32;;;;;;;23.60;8.48;;;;;;;;;;4954179;29;20471;-59
2022/01/20 09:58:59;;;;;;;23.17;9.65;;;;;;;;;;4953830;29;20483;-62
2022/01/20 10:01:39;;;;;;;20.13;8.75;;;;;;;;;;4956939;28;20027;-60
2022/01/20 10:04:05;;;;;;;23.58;8.88;;;;;;;;;;4961020;28;20166;-62
2022/01/20 10:06:31;;;;;;;25.13;8.40;;;;;;;;;;4962869;28;20026;-62
2022/01/20 10:09:01;;;;;;;22.45;8.25;;;;;;;;;;4965904;28;20133;-61
2022/01/20 10:11:29;;;;;;;22.17;9.10;;;;;;;;;;4965654;28;20015;-61
2022/01/20 10:14:05;;;;;;;19.20;7.80;;;;;;;;;;4962035;28;20071;-61
2022/01/20 10:16:31;;;;;;;18.98;7.47;;;;;;;;;;4958298;28;20025;-60
2022/01/20 10:18:59;;;;;;;18.75;7.10;;;;;;;;;;4953517;29;20034;-61
2022/01/20 10:21:32;;;;;;;21.00;7.25;;;;;;;;;;4953573;29;20408;-62
2022/01/20 10:24:10;;;;;;;20.17;8.23;;;;;;;;;;4936158;29;20854;-63
2022/01/20 10:26:36;;;;;;;16.33;6.85;;;;;;;;;;4953208;29;20030;-61
2022/01/20 10:29:02;;;;;;;18.85;7.50;;;;;;;;;;4953130;29;20514;-60
2022/01/20 10:31:31;;;;;;;20.30;7.47;;;;;;;;;;4952892;29;20037;-60
2022/01/20 10:33:58;;;;;;;18.33;7.40;;;;;;;;;;4957717;28;20495;-62
2022/01/20 10:36:24;;;;;;;21.90;8.25;;;;;;;;;;4960593;28;20038;-62
2022/01/20 10:38:51;;;;;;;17.15;8.07;;;;;;;;;;4955693;28;20486;-62
2022/01/20 10:41:31;;;;;;;20.83;9.13;;;;;;;;;;4953405;29;20027;-60
2022/01/20 10:44:11;;;;;;;23.92;9.60;;;;;;;;;;4957730;28;20038;-62
2022/01/20 10:46:47;;;;;;;22.25;9.55;;;;;;;;;;4967401;28;20086;-62
2022/01/20 10:49:14;;;;;;;21.92;9.82;;;;;;;;;;4961440;28;20027;-60
2022/01/20 10:51:40;;;;;;;21.65;9.13;;;;;;;;;;4961728;28;20069;-58
2022/01/20 10:54:09;;;;;;;22.45;9.40;;;;;;;;;;4960636;28;20039;-60
2022/01/20 10:56:47;;;;;;;23.65;9.55;;;;;;;;;;4958076;28;20154;-62
2022/01/20 10:59:13;;;;;;;23.98;9.57;;;;;;;;;;4960316;28;20369;-62
2022/01/20 11:01:39;;;;;;;19.05;8.95;;;;;;;;;;4952750;29;20078;-62
2022/01/20 11:04:05;;;;;;;32.88;11.52;;;;;;;;;;4952686;29;20027;-62
2022/01/20 11:06:34;;;;;;;31.15;12.88;;;;;;;;;;4952973;29;20106;-62
2022/01/20 11:09:00;;;;;;;36.38;12.40;;;;;;;;;;4952348;29;20059;-62
2022/01/20 11:11:26;;;;;;;26.75;12.55;;;;;;;;;;4957578;28;20383;-62
2022/01/20 11:13:52;;;;;;;25.65;10.48;;;;;;;;;;4959411;28;20167;-60
2022/01/20 11:16:21;;;;;;;27.55;11.43;;;;;;;;;;4971464;28;20027;-61
2022/01/20 11:18:47;;;;;;;33.55;14.13;;;;;;;;;;4971348;28;20379;-62
2022/01/20 11:21:23;;;;;;;48.72;23.08;;;;;;;;;;4968744;28;20046;-63
2022/01/20 11:23:49;;;;;;;55.38;26.33;;;;;;;;;;4971786;28;20045;-61
2022/01/20 11:26:15;;;;;;;64.22;32.45;;;;;;;;;;4968524;28;20109;-59
2022/01/20 11:28:41;;;;;;;64.90;31.35;;;;;;;;;;4960536;28;20071;-60
2022/01/20 11:31:09;;;;;;;57.90;27.48;;;;;;;;;;4968033;28;20062;-62
2022/01/20 11:33:37;;;;;;;43.08;18.83;;;;;;;;;;4963455;28;20117;-62
2022/01/20 11:36:05;;;;;;;50.67;24.92;;;;;;;;;;4960207;28;20150;-63
2022/01/20 11:38:47;;;;;;;48.70;25.42;;;;;;;;;;4945730;28;20041;-63
2022/01/20 11:41:14;;;;;;;77.78;31.42;;;;;;;;;;4960226;28;20037;-62
2022/01/20 11:43:42;;;;;;;70.93;31.77;;;;;;;;;;4961023;28;20027;-64
2022/01/20 11:46:15;;;;;;;47.28;23.17;;;;;;;;;;4961222;28;20163;-63
2022/01/20 11:48:54;;;;;;;57.78;25.92;;;;;;;;;;4965325;28;20112;-61
2022/01/20 11:51:20;;;;;;;68.55;35.35;;;;;;;;;;4961126;28;20126;-60
2022/01/20 11:53:56;;;;;;;78.63;38.50;;;;;;;;;;4975237;28;20117;-59
2022/01/20 11:56:34;;;;;;;62.30;31.30;;;;;;;;;;4968908;28;20101;-59
2022/01/20 11:59:00;;;;;;;123.00;60.33;;;;;;;;;;4955918;29;20027;-59
2022/01/20 12:01:27;;;;;;;104.55;52.17;;;;;;;;;;4964265;28;20026;-59
2022/01/20 12:03:55;;;;;;;73.72;35.33;;;;;;;;;;4956772;28;20031;-60
2022/01/20 12:06:25;;;;;;;53.53;28.33;;;;;;;;;;4956380;28;20019;-62
2022/01/20 12:09:04;;;;;;;64.65;32.03;;;;;;;;;;4967960;28;20503;-60
2022/01/20 12:11:40;;;;;;;68.22;32.72;;;;;;;;;;4955000;29;20039;-60
2022/01/20 12:14:07;;;;;;;60.55;28.55;;;;;;;;;;4954458;28;20054;-62
2022/01/20 12:16:33;;;;;;;62.13;32.35;;;;;;;;;;4954752;29;20024;-62
2022/01/20 12:19:01;;;;;;;65.45;30.95;;;;;;;;;;4955166;29;20041;-62
2022/01/20 12:21:28;;;;;;;63.15;30.85;;;;;;;;;;4937765;29;20039;-61
2022/01/20 12:23:55;;;;;;;50.15;23.08;;;;;;;;;;4955302;29;20034;-62
2022/01/20 12:26:21;;;;;;;67.15;32.38;;;;;;;;;;4955443;29;20031;-62
2022/01/20 12:28:48;;;;;;;96.95;47.50;;;;;;;;;;4960783;28;20573;-61
2022/01/20 12:31:14;;;;;;;91.75;44.58;;;;;;;;;;4968866;28;20038;-59
2022/01/20 12:33:47;;;;;;;94.82;42.75;;;;;;;;;;4959418;28;20046;-59
2022/01/20 12:36:13;;;;;;;;;;;;;;;;;;4975112;28;20030;-59
2022/01/20 12:38:39;;;;;;;56.45;28.02;;;;;;;;;;4974325;28;20346;-60
2022/01/20 12:41:05;;;;;;;50.47;25.05;;;;;;;;;;4973900;28;20030;-60
2022/01/20 12:43:55;;;;;;;50.58;23.23;;;;;;;;;;4961518;28;20035;-60
2022/01/20 12:46:23;;;;;;;46.08;20.88;;;;;;;;;;4954562;29;20031;-61
2022/01/20 12:48:52;;;;;;;40.90;19.35;;;;;;;;;;4954478;29;20110;-60
2022/01/20 12:51:18;;;;;;;37.25;18.10;;;;;;;;;;4967909;28;20501;-61
2022/01/20 12:53:55;;;;;;;41.13;19.13;;;;;;;;;;4993677;28;20053;-63
2022/01/20 12:56:30;;;;;;;35.42;16.80;;;;;;;;;;4993443;28;20030;-59
2022/01/20 12:58:56;;;;;;;31.10;14.85;;;;;;;;;;4993506;28;20113;-62
2022/01/20 13:01:22;;;;;;;33.92;14.93;;;;;;;;;;4993176;28;20041;-62
2022/01/20 13:03:49;;;;;;;32.28;14.30;;;;;;;;;;4993318;28;20074;-62
2022/01/20 13:06:24;;;;;;;28.88;13.65;;;;;;;;;;4993328;28;20046;-62
2022/01/20 13:09:01;;;;;;;28.90;13.52;;;;;;;;;;4992708;28;20524;-63
2022/01/20 13:11:32;;;;;;;25.80;13.10;;;;;;;;;;4993178;28;20041;-63
2022/01/20 13:13:58;;;;;;;27.77;13.15;;;;;;;;;;4961112;28;20032;-63
2022/01/20 13:16:24;;;;;;;26.52;12.70;;;;;;;;;;4954143;29;20073;-61
2022/01/20 13:18:54;;;;;;;23.33;12.10;;;;;;;;;;4953720;29;20038;-62
2022/01/20 13:21:23;;;;;;;23.75;11.93;;;;;;;;;;4954362;28;20063;-62
2022/01/20 13:23:55;;;;;;;23.67;12.55;;;;;;;;;;4954391;29;20063;-61
2022/01/20 13:26:22;;;;;;;23.65;12.10;;;;;;;;;;4936600;29;20066;-62
2022/01/20 13:29:00;;;;;;;24.58;12.30;;;;;;;;;;4974089;28;20026;-61
2022/01/20 13:31:26;;;;;;;24.25;12.45;;;;;;;;;;4992574;28;20030;-63
2022/01/20 13:33:52;;;;;;;21.75;11.00;;;;;;;;;;4992449;28;20042;-62
2022/01/20 13:36:21;;;;;;;22.00;11.02;;;;;;;;;;4993002;28;20369;-62
2022/01/20 13:38:49;;;;;;;26.08;12.60;;;;;;;;;;4991841;28;20114;-61
2022/01/20 13:41:19;;;;;;;24.85;13.68;;;;;;;;;;4992313;28;20026;-62
2022/01/20 13:46:31;;;;;;;32.45;16.30;;;;;;;;;;4992724;28;20532;-63
2022/01/20 13:52:06;;;;;;;43.83;21.08;;;;;;;;;;4992964;28;20378;-62
2022/01/20 13:54:39;;;;;;;45.83;21.55;;;;;;;;;;4992712;28;20026;-63
2022/01/20 13:57:05;;;;;;;45.55;23.50;;;;;;;;;;4987907;28;20481;-61
2022/01/20 13:59:31;;;;;;;52.47;25.90;;;;;;;;;;4963382;28;20030;-63
2022/01/20 14:01:57;;;;;;;57.58;28.55;;;;;;;;;;4961392;28;20035;-63
2022/01/20 14:04:23;;;;;;;59.97;32.13;;;;;;;;;;4961617;28;20019;-64
2022/01/20 14:06:49;;;;;;;78.53;38.85;;;;;;;;;;4965492;28;20031;-63
2022/01/20 14:09:15;;;;;;;90.55;49.88;;;;;;;;;;4961268;28;20176;-64
2022/01/20 14:11:43;;;;;;;93.05;48.17;;;;;;;;;;4963022;28;20097;-63
2022/01/20 14:14:11;;;;;;;98.65;50.20;;;;;;;;;;4961536;28;20801;-63
2022/01/20 14:16:38;;;;;;;104.53;55.25;;;;;;;;;;4961566;28;20070;-63
2022/01/20 14:19:06;;;;;;;107.88;55.60;;;;;;;;;;4962723;28;20025;-64
2022/01/20 14:21:32;;;;;;;99.60;50.50;;;;;;;;;;4967978;28;20019;-63
2022/01/20 14:24:00;;;;;;;111.97;57.85;;;;;;;;;;4962394;28;20518;-64
2022/01/20 14:26:30;;;;;;;116.35;61.05;;;;;;;;;;4961861;28;20031;-62
2022/01/20 14:28:57;;;;;;;109.13;57.22;;;;;;;;;;4960790;28;20118;-64
2022/01/20 14:31:23;;;;;;;96.15;51.65;;;;;;;;;;4961254;28;20047;-63
2022/01/20 14:33:49;;;;;;;88.50;46.28;;;;;;;;;;4963293;28;20122;-65
2022/01/20 14:36:15;;;;;;;87.45;46.65;;;;;;;;;;4972876;28;20081;-66
2022/01/20 14:38:41;;;;;;;79.75;42.50;;;;;;;;;;4964655;28;20031;-63
2022/01/20 14:41:07;;;;;;;83.03;42.70;;;;;;;;;;4955354;28;20180;-67
2022/01/20 14:43:33;;;;;;;65.55;35.78;;;;;;;;;;4970561;28;20030;-66
2022/01/20 14:45:59;;;;;;;70.47;36.47;;;;;;;;;;4963215;28;20038;-63
2022/01/20 14:48:27;;;;;;;69.40;35.17;;;;;;;;;;4961784;28;20506;-64
2022/01/20 14:50:53;;;;;;;63.33;33.83;;;;;;;;;;4972330;28;20035;-63
2022/01/20 14:53:19;;;;;;;67.93;33.08;;;;;;;;;;4972216;28;20034;-62
2022/01/20 14:55:46;;;;;;;59.95;31.55;;;;;;;;;;4972038;28;20027;-64
2022/01/20 14:58:12;;;;;;;59.45;30.10;;;;;;;;;;4966991;28;20027;-62
2022/01/20 15:00:38;;;;;;;63.42;30.92;;;;;;;;;;4962092;28;20026;-61
2022/01/20 15:03:05;;;;;;;69.85;31.65;;;;;;;;;;4962186;28;20030;-61
2022/01/20 15:05:32;;;;;;;58.00;30.85;;;;;;;;;;4955132;28;20485;-62
2022/01/20 15:07:58;;;;;;;59.20;33.15;;;;;;;;;;4962260;28;20046;-61
2022/01/20 15:10:24;;;;;;;79.03;37.30;;;;;;;;;;4961469;28;20041;-60
2022/01/20 15:12:51;;;;;;;59.63;31.13;;;;;;;;;;4960211;28;20038;-60
2022/01/20 15:15:17;;;;;;;67.35;32.92;;;;;;;;;;4960448;28;20023;-61
2022/01/20 15:17:44;;;;;;;57.83;31.15;;;;;;;;;;4961207;28;20023;-62
2022/01/20 15:20:10;;;;;;;60.45;29.55;;;;;;;;;;4963026;28;20020;-61
2022/01/20 15:22:37;;;;;;;66.15;33.85;;;;;;;;;;4963742;28;20027;-59
2022/01/20 15:25:03;;;;;;;46.40;25.40;;;;;;;;;;4958444;28;20065;-63
2022/01/20 15:27:30;;;;;;;70.88;35.05;;;;;;;;;;4967861;28;20027;-62
2022/01/20 15:29:56;;;;;;;70.45;35.10;;;;;;;;;;4976059;28;20454;-60
2022/01/20 15:32:22;;;;;;;69.22;37.45;;;;;;;;;;4958485;28;20391;-62
2022/01/20 15:34:48;;;;;;;70.88;33.75;;;;;;;;;;4956400;28;20039;-61
2022/01/20 15:37:14;;;;;;;60.83;29.80;;;;;;;;;;4939182;29;20063;-61
2022/01/20 15:39:40;;;;;;;69.60;32.95;;;;;;;;;;4956459;29;20035;-61
2022/01/20 15:42:06;;;;;;;67.00;32.33;;;;;;;;;;4956218;29;20066;-63